Time;durP1;ratioP1;P1;durP2;ratioP2;P2;SDS_P1;SDS_P2;PMS_P1;PMS_P2;Temp;Humidity;BMP_temperature;BMP_pressure;BME280_temperature;BME280_humidity;BME280_pressure;Samples;Min_cycle;Max_cycle;Signal;HPM_P1;HPM_P2
2022/05/13 00:01:56;;;;;;;1.70;1.70;;;22.80;57.00;;;;;;5014467;28;20469;-61
2022/05/13 00:04:23;;;;;;;1.83;1.73;;;22.80;57.00;;;;;;5014576;28;20452;-58
2022/05/13 00:06:50;;;;;;;2.17;1.97;;;22.80;57.10;;;;;;5014399;28;20481;-58
2022/05/13 00:09:17;;;;;;;1.47;1.47;;;22.80;57.10;;;;;;5014404;28;20489;-59
2022/05/13 00:11:44;;;;;;;1.80;1.70;;;22.70;57.10;;;;;;5033248;28;20477;-59
2022/05/13 00:14:12;;;;;;;1.50;1.50;;;22.70;57.10;;;;;;5034426;28;20457;-58
2022/05/13 00:16:39;;;;;;;2.47;2.17;;;22.70;57.10;;;;;;5033899;28;20441;-58
2022/05/13 00:19:08;;;;;;;2.93;1.77;;;22.70;57.10;;;;;;5034068;28;20945;-61
2022/05/13 00:21:35;;;;;;;1.40;1.30;;;22.70;57.10;;;;;;5033641;28;20473;-60
2022/05/13 00:24:02;;;;;;;1.70;1.60;;;22.70;57.10;;;;;;5034245;28;20452;-61
2022/05/13 00:26:28;;;;;;;1.70;1.60;;;22.70;57.10;;;;;;5034030;28;20445;-59
2022/05/13 00:28:55;;;;;;;1.90;1.60;;;22.70;57.10;;;;;;5033833;28;20457;-59
2022/05/13 00:31:24;;;;;;;2.50;2.30;;;22.70;57.10;;;;;;5033346;28;20563;-58
2022/05/13 00:33:51;;;;;;;1.60;1.60;;;22.70;57.20;;;;;;5033911;28;20453;-60
2022/05/13 00:36:18;;;;;;;2.13;1.93;;;22.60;57.10;;;;;;5033616;28;20449;-59
2022/05/13 00:38:45;;;;;;;1.37;1.27;;;22.70;57.20;;;;;;5033574;28;20445;-58
2022/05/13 00:41:11;;;;;;;2.20;1.57;;;22.60;57.20;;;;;;5033592;28;20460;-60
2022/05/13 00:43:45;;;;;;;1.50;1.40;;;22.60;57.20;;;;;;5033803;28;20452;-60
2022/05/13 00:46:12;;;;;;;1.47;1.30;;;22.60;57.30;;;;;;5033556;28;20935;-58
2022/05/13 00:48:40;;;;;;;2.70;1.50;;;22.60;57.30;;;;;;5033312;28;20521;-60
2022/05/13 00:51:10;;;;;;;1.60;1.50;;;22.60;57.40;;;;;;5033321;28;20496;-61
2022/05/13 00:53:37;;;;;;;2.87;2.07;;;22.60;57.50;;;;;;5033464;28;20499;-59
2022/05/13 00:56:05;;;;;;;2.00;1.90;;;22.60;57.60;;;;;;5033440;28;20456;-60
2022/05/13 00:58:34;;;;;;;2.03;1.60;;;22.60;57.70;;;;;;5033007;28;20449;-61
2022/05/13 01:01:01;;;;;;;1.67;1.67;;;22.60;57.70;;;;;;5033233;28;20466;-59
2022/05/13 01:03:28;;;;;;;1.37;1.27;;;22.60;57.80;;;;;;5033266;28;20452;-62
2022/05/13 01:05:59;;;;;;;1.20;1.10;;;22.60;57.80;;;;;;5033032;28;20438;-61
2022/05/13 01:08:27;;;;;;;1.40;1.30;;;22.60;58.40;;;;;;5032931;28;20456;-58
2022/05/13 01:10:56;;;;;;;1.37;1.37;;;22.50;57.90;;;;;;5032690;28;20483;-61
2022/05/13 01:13:28;;;;;;;1.70;1.60;;;22.50;57.90;;;;;;5033110;28;20460;-61
2022/05/13 01:15:55;;;;;;;1.77;1.67;;;22.50;57.90;;;;;;5032845;28;20441;-61
2022/05/13 01:18:27;;;;;;;1.70;1.60;;;22.50;57.90;;;;;;5032739;28;20456;-56
2022/05/13 01:20:56;;;;;;;1.47;1.37;;;22.50;58.00;;;;;;5033160;28;20911;-58
2022/05/13 01:23:26;;;;;;;1.67;1.50;;;22.50;58.10;;;;;;5032608;28;20954;-60
2022/05/13 01:25:55;;;;;;;1.73;1.53;;;22.50;58.10;;;;;;5032886;28;20453;-57
2022/05/13 01:28:24;;;;;;;1.83;1.73;;;22.50;58.10;;;;;;5032396;28;21188;-59
2022/05/13 01:30:54;;;;;;;2.20;1.63;;;22.50;58.20;;;;;;5032686;28;20488;-61
2022/05/13 01:33:22;;;;;;;1.83;1.60;;;22.50;58.20;;;;;;5032725;28;20441;-60
2022/05/13 01:35:51;;;;;;;1.77;1.67;;;22.50;58.20;;;;;;5032522;28;20441;-61
2022/05/13 01:38:21;;;;;;;2.00;1.90;;;22.50;58.20;;;;;;5032046;28;20449;-59
2022/05/13 01:40:49;;;;;;;2.00;1.40;;;22.50;58.20;;;;;;5032486;28;20461;-61
2022/05/13 01:43:16;;;;;;;1.40;1.23;;;22.40;58.10;;;;;;5032432;28;20461;-61
2022/05/13 01:45:43;;;;;;;1.60;1.40;;;22.40;58.10;;;;;;5032376;28;20468;-61
2022/05/13 01:48:11;;;;;;;1.77;1.67;;;22.40;58.20;;;;;;5032016;28;20449;-60
2022/05/13 01:50:39;;;;;;;1.40;1.40;;;22.40;58.10;;;;;;5032287;28;20480;-61
2022/05/13 01:53:06;;;;;;;1.70;1.60;;;22.40;58.20;;;;;;5032338;28;20804;-59
2022/05/13 01:55:34;;;;;;;1.70;1.60;;;22.40;58.20;;;;;;5032285;28;20448;-61
2022/05/13 01:58:02;;;;;;;1.43;1.40;;;22.40;58.20;;;;;;5031752;28;20449;-57
2022/05/13 02:00:29;;;;;;;1.63;1.53;;;22.40;58.10;;;;;;5032163;28;20796;-59
2022/05/13 02:05:41;;;;;;;1.30;1.27;;;22.40;58.10;;;;;;5032177;28;20440;-63
2022/05/13 02:08:08;;;;;;;4.27;2.07;;;22.40;58.00;;;;;;5031713;28;20449;-61
2022/05/13 02:10:34;;;;;;;1.50;1.40;;;22.40;57.90;;;;;;5031852;28;20481;-61
2022/05/13 02:13:03;;;;;;;2.40;1.70;;;22.30;57.80;;;;;;5032268;28;20441;-61
2022/05/13 02:15:30;;;;;;;1.40;1.40;;;22.30;57.80;;;;;;5032013;28;20456;-60
2022/05/13 02:17:56;;;;;;;4.27;1.87;;;22.30;57.80;;;;;;5031319;28;20453;-60
2022/05/13 02:20:23;;;;;;;2.03;1.83;;;22.30;57.80;;;;;;5031955;28;20438;-60
2022/05/13 02:22:50;;;;;;;2.43;2.10;;;22.30;57.70;;;;;;5032133;28;20483;-61
2022/05/13 02:25:17;;;;;;;1.40;1.30;;;22.30;57.70;;;;;;5031735;28;20938;-59
2022/05/13 02:27:44;;;;;;;1.63;1.57;;;22.30;57.60;;;;;;5031407;28;20446;-60
2022/05/13 02:30:13;;;;;;;2.10;1.70;;;22.30;57.60;;;;;;5031698;28;20480;-61
2022/05/13 02:32:40;;;;;;;1.70;1.60;;;22.30;58.00;;;;;;5031894;28;20465;-59
2022/05/13 02:35:08;;;;;;;1.63;1.20;;;22.30;57.40;;;;;;5031798;28;20456;-59
2022/05/13 02:37:35;;;;;;;2.20;2.10;;;22.30;57.40;;;;;;5031183;28;20943;-60
2022/05/13 02:40:01;;;;;;;1.63;1.53;;;22.20;57.40;;;;;;5031559;28;20472;-58
2022/05/13 02:42:28;;;;;;;2.57;1.40;;;22.20;57.40;;;;;;5031568;28;20476;-58
2022/05/13 02:44:55;;;;;;;1.13;1.10;;;22.20;57.40;;;;;;5031680;28;20460;-61
2022/05/13 02:47:23;;;;;;;1.57;1.47;;;22.20;57.30;;;;;;5030720;28;20449;-58
2022/05/13 02:50:17;;;;;;;2.40;1.73;;;22.20;57.30;;;;;;5032028;28;20452;-60
2022/05/13 02:52:37;;;;;;;1.83;1.73;;;22.20;57.30;;;;;;5035624;28;20523;-59
2022/05/13 02:55:06;;;;;;;1.80;1.37;;;22.20;57.30;;;;;;5035327;28;20472;-61
2022/05/13 02:57:33;;;;;;;1.90;1.80;;;22.20;57.20;;;;;;5035392;28;20448;-59
2022/05/13 03:00:00;;;;;;;1.37;1.37;;;22.20;57.30;;;;;;5035579;28;20441;-60
2022/05/13 03:02:28;;;;;;;1.60;1.50;;;22.20;57.30;;;;;;5035474;28;20468;-58
2022/05/13 03:04:55;;;;;;;2.20;2.00;;;22.10;57.20;;;;;;5035421;28;20449;-60
2022/05/13 03:07:22;;;;;;;1.67;1.57;;;22.10;57.10;;;;;;5034979;28;20473;-59
2022/05/13 03:09:48;;;;;;;1.77;1.67;;;22.10;57.00;;;;;;5035406;28;20931;-55
2022/05/13 03:12:15;;;;;;;2.97;1.30;;;22.10;57.00;;;;;;5035196;28;20481;-59
2022/05/13 03:14:42;;;;;;;1.70;1.60;;;22.10;56.90;;;;;;5035563;28;20444;-60
2022/05/13 03:17:09;;;;;;;2.40;1.27;;;22.10;56.90;;;;;;5034859;28;20441;-57
2022/05/13 03:19:39;;;;;;;1.50;1.40;;;22.10;56.90;;;;;;5035180;28;20451;-59
2022/05/13 03:22:06;;;;;;;2.43;1.63;;;22.10;56.90;;;;;;5035270;28;20468;-62
2022/05/13 03:24:33;;;;;;;1.63;1.53;;;22.10;56.80;;;;;;5035169;28;20452;-58
2022/05/13 03:27:01;;;;;;;2.00;1.90;;;22.10;56.70;;;;;;5034508;28;20452;-59
2022/05/13 03:29:28;;;;;;;0.93;0.87;;;22.00;56.60;;;;;;5035091;28;20448;-62
2022/05/13 03:31:55;;;;;;;2.00;1.80;;;22.00;56.50;;;;;;5034832;28;20905;-60
2022/05/13 03:34:22;;;;;;;1.43;1.33;;;22.00;56.50;;;;;;5034963;28;20468;-58
2022/05/13 03:36:50;;;;;;;1.17;1.17;;;22.10;56.60;;;;;;5034613;28;20449;-59
2022/05/13 03:39:17;;;;;;;1.20;1.20;;;22.00;56.40;;;;;;5034478;28;20444;-58
2022/05/13 03:41:44;;;;;;;2.43;1.67;;;22.00;56.40;;;;;;5034768;28;20468;-57
2022/05/13 03:44:10;;;;;;;1.20;1.10;;;22.00;56.40;;;;;;5034787;28;20456;-60
2022/05/13 03:46:37;;;;;;;1.93;1.83;;;22.00;56.30;;;;;;5034289;28;20464;-56
2022/05/13 03:49:04;;;;;;;2.13;1.50;;;22.00;56.30;;;;;;5034668;28;20444;-59
2022/05/13 03:51:32;;;;;;;1.53;1.40;;;22.00;56.30;;;;;;5034513;28;20496;-59
2022/05/13 03:54:00;;;;;;;2.30;1.40;;;22.00;56.30;;;;;;5034252;28;20503;-58
2022/05/13 03:56:26;;;;;;;1.23;1.17;;;22.00;56.20;;;;;;5034366;28;20449;-60
2022/05/13 03:58:53;;;;;;;2.63;1.40;;;22.00;56.20;;;;;;5034384;28;20475;-59
2022/05/13 04:01:20;;;;;;;1.30;1.20;;;22.00;56.20;;;;;;5033870;28;20540;-60
2022/05/13 04:03:47;;;;;;;4.63;1.57;;;22.00;56.30;;;;;;5034192;28;20456;-59
2022/05/13 04:09:00;;;;;;;2.30;1.30;;;21.90;56.40;;;;;;5034403;28;20786;-61
2022/05/13 04:11:29;;;;;;;2.80;1.63;;;21.90;56.40;;;;;;5034144;28;20500;-59
2022/05/13 04:16:41;;;;;;;2.50;1.97;;;21.90;56.30;;;;;;5034526;28;20421;-61
2022/05/13 04:19:07;;;;;;;1.20;1.10;;;21.90;56.30;;;;;;5034150;28;20809;-61
2022/05/13 04:21:36;;;;;;;1.50;1.40;;;21.90;56.30;;;;;;5034001;28;20468;-58
2022/05/13 04:24:07;;;;;;;1.10;0.80;;;21.90;56.20;;;;;;5033786;28;20804;-60
2022/05/13 04:26:34;;;;;;;1.10;1.10;;;21.90;56.20;;;;;;5033919;28;20449;-62
2022/05/13 04:29:02;;;;;;;1.23;1.00;;;21.90;56.10;;;;;;5033901;28;20456;-61
2022/05/13 04:31:31;;;;;;;3.10;1.90;;;21.90;56.20;;;;;;5033894;28;21005;-59
2022/05/13 04:33:59;;;;;;;3.03;1.70;;;21.90;56.50;;;;;;5033588;28;20450;-63
2022/05/13 04:36:27;;;;;;;7.20;1.93;;;22.00;57.60;;;;;;5033278;28;20540;-64
2022/05/13 04:38:55;;;;;;;4.70;1.43;;;22.00;57.00;;;;;;5033806;28;20445;-65
2022/05/13 04:44:09;;;;;;;12.10;2.60;;;21.90;56.10;;;;;;5033792;28;20925;-63
2022/05/13 04:46:36;;;;;;;1.97;1.77;;;21.90;55.90;;;;;;5033472;28;20869;-64
2022/05/13 04:49:04;;;;;;;1.97;1.87;;;21.80;55.60;;;;;;5033768;28;20957;-65
2022/05/13 04:51:31;;;;;;;2.00;1.83;;;21.80;55.50;;;;;;5033291;28;20491;-61
2022/05/13 04:53:58;;;;;;;1.97;1.77;;;21.80;55.30;;;;;;5033479;28;20447;-65
2022/05/13 04:56:28;;;;;;;2.43;1.40;;;21.80;55.10;;;;;;5033550;28;20437;-64
2022/05/13 04:58:55;;;;;;;2.47;1.50;;;21.70;55.00;;;;;;5033526;28;20445;-64
2022/05/13 05:01:23;;;;;;;3.90;1.73;;;21.80;55.00;;;;;;5033245;28;20469;-66
2022/05/13 05:03:50;;;;;;;1.10;1.10;;;21.70;54.90;;;;;;5033375;28;20466;-64
2022/05/13 05:06:18;;;;;;;1.27;1.17;;;21.80;54.90;;;;;;5033067;28;20445;-62
2022/05/13 05:08:46;;;;;;;1.53;0.97;;;21.80;54.80;;;;;;5033090;28;20445;-63
2022/05/13 05:11:14;;;;;;;4.20;1.53;;;21.70;54.70;;;;;;5033051;28;20492;-65
2022/05/13 05:13:44;;;;;;;2.97;1.70;;;21.70;54.70;;;;;;5032247;28;20441;-65
2022/05/13 05:16:12;;;;;;;2.97;2.10;;;21.70;54.70;;;;;;5032908;28;20448;-64
2022/05/13 05:18:40;;;;;;;1.40;1.10;;;21.70;54.70;;;;;;5032906;28;20452;-65
2022/05/13 05:21:09;;;;;;;3.37;1.40;;;21.70;54.60;;;;;;5032827;28;20515;-64
2022/05/13 05:23:38;;;;;;;2.10;1.23;;;21.70;54.50;;;;;;5033148;28;20444;-63
2022/05/13 05:26:06;;;;;;;2.10;1.27;;;21.60;54.50;;;;;;5032689;28;20810;-64
2022/05/13 05:28:33;;;;;;;2.20;1.23;;;21.60;54.60;;;;;;5032737;28;20536;-65
2022/05/13 05:31:01;;;;;;;2.53;1.50;;;21.60;54.50;;;;;;5032682;28;20485;-65
2022/05/13 05:33:28;;;;;;;1.90;1.17;;;21.60;54.40;;;;;;5032779;28;20449;-65
2022/05/13 05:35:55;;;;;;;1.60;1.40;;;21.70;54.50;;;;;;5032484;28;20816;-64
2022/05/13 05:38:22;;;;;;;1.70;1.23;;;21.60;54.30;;;;;;5032588;28;21046;-65
2022/05/13 05:40:48;;;;;;;1.80;1.67;;;21.60;54.90;;;;;;5032479;28;20464;-65
2022/05/13 05:43:17;;;;;;;1.53;1.43;;;21.60;54.40;;;;;;5032601;28;20441;-65
2022/05/13 05:45:45;;;;;;;1.47;1.37;;;21.60;54.30;;;;;;5032442;28;20453;-65
2022/05/13 05:48:21;;;;;;;4.10;2.20;;;21.50;54.20;;;;;;5032443;28;20879;-63
2022/05/13 05:50:48;;;;;;;1.23;1.13;;;21.50;54.20;;;;;;5032192;28;20473;-64
2022/05/13 05:57:13;;;;;;;2.73;2.40;;;21.50;54.30;;;;;;5032375;28;20445;-65
2022/05/13 05:58:46;;;;;;;1.73;1.03;;;21.50;54.20;;;;;;5032688;28;20428;-64
2022/05/13 06:01:14;;;;;;;2.20;1.30;;;21.40;54.20;;;;;;5032357;28;20548;-65
2022/05/13 06:03:42;;;;;;;2.43;1.20;;;21.40;54.20;;;;;;5032151;28;20476;-64
2022/05/13 06:06:12;;;;;;;1.30;1.20;;;21.40;54.30;;;;;;5032003;28;20460;-64
2022/05/13 06:08:38;;;;;;;1.40;1.30;;;21.50;54.30;;;;;;5032136;28;20456;-62
2022/05/13 06:11:05;;;;;;;1.20;1.10;;;21.50;54.20;;;;;;5031880;28;20574;-65
2022/05/13 06:13:32;;;;;;;2.70;1.47;;;21.40;54.20;;;;;;5072137;22;20494;-60
2022/05/13 06:15:59;;;;;;;1.20;1.10;;;21.40;54.20;;;;;;5051691;28;20475;-61
2022/05/13 06:18:26;;;;;;;1.80;1.53;;;21.30;54.10;;;;;;5051906;28;20814;-58
2022/05/13 06:20:54;;;;;;;1.67;1.57;;;21.30;54.10;;;;;;5051846;28;20463;-60
2022/05/13 06:23:20;;;;;;;3.00;1.67;;;21.40;54.20;;;;;;5051864;28;20916;-59
2022/05/13 06:25:47;;;;;;;1.50;1.40;;;21.40;54.20;;;;;;5051522;28;20444;-60
2022/05/13 06:28:14;;;;;;;2.50;1.17;;;21.30;54.20;;;;;;5051654;28;20448;-58
2022/05/13 06:30:41;;;;;;;1.50;1.27;;;21.30;54.30;;;;;;5051774;28;20452;-60
2022/05/13 06:33:07;;;;;;;1.73;1.63;;;21.30;54.10;;;;;;5051615;28;20480;-59
2022/05/13 06:35:35;;;;;;;2.03;1.90;;;21.40;54.20;;;;;;5051553;28;20444;-60
2022/05/13 06:38:03;;;;;;;1.13;1.07;;;21.40;54.10;;;;;;5051414;28;20448;-60
2022/05/13 06:40:30;;;;;;;1.10;1.03;;;21.40;54.10;;;;;;5051605;28;20444;-59
2022/05/13 06:42:57;;;;;;;1.60;1.50;;;21.40;54.20;;;;;;5051460;28;20460;-58
2022/05/13 06:45:24;;;;;;;1.13;0.87;;;21.40;54.10;;;;;;5051550;28;20440;-58
2022/05/13 06:47:50;;;;;;;2.00;1.23;;;21.40;54.10;;;;;;5051391;28;20447;-61
2022/05/13 06:50:19;;;;;;;2.10;1.33;;;21.40;54.10;;;;;;5051494;28;20799;-61
2022/05/13 06:52:46;;;;;;;2.53;2.43;;;21.40;54.20;;;;;;5051351;28;20491;-59
2022/05/13 06:55:17;;;;;;;4.30;1.70;;;21.40;54.20;;;;;;5051466;28;20444;-60
2022/05/13 06:57:43;;;;;;;2.73;1.80;;;21.40;54.30;;;;;;5051221;28;20447;-61
2022/05/13 07:00:11;;;;;;;3.23;1.80;;;21.40;54.30;;;;;;5051403;28;20444;-61
2022/05/13 07:02:38;;;;;;;2.33;1.73;;;21.40;54.30;;;;;;5051547;28;20479;-60
2022/05/13 07:05:06;;;;;;;3.57;1.47;;;21.40;54.40;;;;;;5051227;28;20448;-61
2022/05/13 07:07:33;;;;;;;2.87;1.40;;;21.40;54.40;;;;;;5051225;28;20463;-60
2022/05/13 07:09:59;;;;;;;2.80;1.27;;;21.30;54.30;;;;;;5051255;28;20448;-61
2022/05/13 07:12:29;;;;;;;1.87;1.77;;;21.30;54.50;;;;;;5051176;28;20495;-60
2022/05/13 07:14:56;;;;;;;1.37;1.27;;;21.20;54.50;;;;;;5051160;28;20449;-57
2022/05/13 07:17:23;;;;;;;1.50;1.40;;;21.30;54.40;;;;;;5051030;28;20436;-61
2022/05/13 07:19:50;;;;;;;2.63;1.20;;;21.30;54.30;;;;;;5051087;28;20444;-60
2022/05/13 07:22:17;;;;;;;2.40;1.33;;;21.30;54.30;;;;;;5051188;28;20452;-60
2022/05/13 07:24:44;;;;;;;3.60;2.40;;;21.30;54.80;;;;;;5051012;28;20929;-61
2022/05/13 07:27:10;;;;;;;1.70;1.60;;;21.30;54.30;;;;;;5050949;28;20440;-61
2022/05/13 07:29:39;;;;;;;3.70;1.30;;;21.40;54.30;;;;;;5051021;28;20467;-62
2022/05/13 07:32:06;;;;;;;1.70;1.60;;;21.40;54.90;;;;;;5051010;28;20503;-61
2022/05/13 07:34:33;;;;;;;1.30;1.20;;;21.30;54.30;;;;;;5051150;28;20922;-60
2022/05/13 07:37:01;;;;;;;2.80;1.40;;;21.30;54.30;;;;;;5052947;28;20518;-61
2022/05/13 07:42:13;;;;;;;1.50;1.50;;;21.30;54.30;;;;;;5055089;28;20481;-61
2022/05/13 07:44:41;;;;;;;2.43;1.00;;;21.30;54.40;;;;;;5054782;28;20470;-61
2022/05/13 07:47:10;;;;;;;1.63;1.43;;;21.30;54.40;;;;;;5054460;28;20452;-61
2022/05/13 07:49:38;;;;;;;3.03;1.67;;;21.30;54.30;;;;;;5054597;28;20444;-60
2022/05/13 07:52:06;;;;;;;3.07;1.47;;;21.30;54.30;;;;;;5054400;28;20900;-61
2022/05/13 07:54:33;;;;;;;1.67;1.57;;;21.30;54.40;;;;;;5054568;28;20448;-61
2022/05/13 07:57:00;;;;;;;1.33;1.23;;;21.30;54.40;;;;;;5054561;28;20455;-61
2022/05/13 07:59:26;;;;;;;2.40;1.87;;;21.30;54.30;;;;;;5054543;28;20805;-62
2022/05/13 08:01:54;;;;;;;2.00;1.70;;;21.30;54.50;;;;;;5054311;28;20799;-61
2022/05/13 08:04:21;;;;;;;2.87;1.40;;;21.30;54.50;;;;;;5054344;28;20451;-61
2022/05/13 08:06:48;;;;;;;1.33;1.07;;;21.30;54.50;;;;;;5054174;28;20452;-61
2022/05/13 08:09:15;;;;;;;1.23;1.10;;;21.30;54.50;;;;;;5054375;28;20888;-60
2022/05/13 08:11:42;;;;;;;3.63;1.93;;;21.20;54.40;;;;;;5053955;28;20455;-60
2022/05/13 08:14:09;;;;;;;3.37;1.70;;;21.20;54.40;;;;;;5054208;28;20452;-61
2022/05/13 08:16:36;;;;;;;2.17;1.20;;;21.20;54.40;;;;;;5053925;28;20453;-61
2022/05/13 08:19:05;;;;;;;1.20;1.10;;;21.20;54.40;;;;;;5053962;28;20944;-61
2022/05/13 08:21:32;;;;;;;1.30;1.20;;;21.20;54.40;;;;;;5053840;28;20454;-61
2022/05/13 08:23:59;;;;;;;4.40;1.40;;;21.20;54.40;;;;;;5053913;28;20444;-61
2022/05/13 08:26:26;;;;;;;1.83;1.20;;;21.20;54.40;;;;;;5053798;28;20440;-60
2022/05/13 08:28:52;;;;;;;1.67;1.57;;;21.20;54.20;;;;;;5053775;28;20459;-57
2022/05/13 08:31:19;;;;;;;2.87;1.40;;;21.20;54.30;;;;;;5053747;28;20443;-61
2022/05/13 08:33:46;;;;;;;1.73;1.63;;;21.20;54.30;;;;;;5053561;28;20969;-60
2022/05/13 08:36:14;;;;;;;1.57;1.47;;;21.10;54.20;;;;;;5053599;28;20945;-60
2022/05/13 08:38:42;;;;;;;0.90;0.90;;;21.10;54.30;;;;;;5053667;28;20847;-60
2022/05/13 08:41:27;;;;;;;1.93;1.63;;;21.20;54.20;;;;;;5053658;28;20916;-61
2022/05/13 08:44:00;;;;;;;5.20;2.40;;;21.20;54.20;;;;;;5053595;28;20440;-61
2022/05/13 08:46:36;;;;;;;2.80;1.37;;;21.20;54.20;;;;;;5053243;28;20454;-61
2022/05/13 08:49:09;;;;;;;1.90;1.40;;;21.20;54.30;;;;;;5052246;28;20491;-61
2022/05/13 08:51:50;;;;;;;1.20;1.10;;;21.20;54.30;;;;;;5053342;28;20441;-61
2022/05/13 08:54:19;;;;;;;2.40;1.47;;;21.30;54.30;;;;;;5053412;28;20443;-60
2022/05/13 08:56:49;;;;;;;2.07;1.03;;;21.20;54.40;;;;;;5053062;28;20933;-61
2022/05/13 08:59:20;;;;;;;2.63;1.60;;;21.20;54.50;;;;;;5053288;28;20452;-62
2022/05/13 09:01:53;;;;;;;2.20;1.00;;;21.10;54.50;;;;;;5053124;28;20943;-61
2022/05/13 09:04:30;;;;;;;1.50;1.40;;;21.20;54.60;;;;;;5053338;28;20448;-62
2022/05/13 09:07:02;;;;;;;3.57;2.00;;;21.20;54.50;;;;;;5052972;28;20451;-62
2022/05/13 09:09:31;;;;;;;6.13;1.70;;;21.20;54.50;;;;;;5053149;28;20447;-61
2022/05/13 09:12:17;;;;;;;1.93;1.37;;;21.20;54.60;;;;;;5052981;28;20476;-62
2022/05/13 09:14:47;;;;;;;2.50;2.30;;;21.20;54.50;;;;;;5053083;28;20796;-62
2022/05/13 09:17:30;;;;;;;2.80;1.00;;;21.20;54.70;;;;;;5053090;28;20809;-61
2022/05/13 09:20:01;;;;;;;2.07;1.60;;;21.20;54.70;;;;;;5052917;28;20447;-61
2022/05/13 09:22:39;;;;;;;2.97;1.47;;;21.10;54.60;;;;;;5052854;28;20552;-61
2022/05/13 09:25:07;;;;;;;2.00;1.23;;;21.20;54.60;;;;;;5052880;28;20783;-60
2022/05/13 09:27:45;;;;;;;1.63;1.53;;;21.20;54.70;;;;;;5052631;28;20535;-60
2022/05/13 09:30:12;;;;;;;1.60;1.27;;;21.20;54.60;;;;;;5052744;28;20815;-61
2022/05/13 09:32:39;;;;;;;1.57;1.30;;;21.20;54.60;;;;;;5052513;28;20491;-61
2022/05/13 09:35:13;;;;;;;4.03;1.60;;;21.20;54.60;;;;;;5052651;28;20444;-60
2022/05/13 09:37:45;;;;;;;1.83;1.40;;;21.20;54.60;;;;;;5052439;28;20506;-61
2022/05/13 09:40:19;;;;;;;1.67;1.17;;;21.20;54.60;;;;;;5052696;28;20926;-61
2022/05/13 09:42:48;;;;;;;2.23;2.07;;;21.20;54.60;;;;;;5052448;28;20464;-62
2022/05/13 09:45:23;;;;;;;2.23;1.50;;;21.20;54.50;;;;;;5052352;28;20814;-61
2022/05/13 09:48:17;;;;;;;0.87;0.87;;;21.20;54.50;;;;;;5052217;28;20444;-62
2022/05/13 09:50:46;;;;;;;2.70;1.10;;;21.20;54.50;;;;;;5034970;28;20514;-62
2022/05/13 09:53:29;;;;;;;5.00;1.23;;;21.20;54.40;;;;;;5052105;28;20488;-62
2022/05/13 09:55:58;;;;;;;1.40;1.30;;;21.20;54.30;;;;;;5052084;28;20444;-62
2022/05/13 09:58:27;;;;;;;1.73;1.63;;;21.20;54.20;;;;;;5052083;28;20824;-61
2022/05/13 10:00:58;;;;;;;1.50;1.40;;;21.20;54.30;;;;;;5052015;28;20448;-62
2022/05/13 10:03:29;;;;;;;1.07;1.07;;;21.20;54.30;;;;;;5052174;28;20464;-62
2022/05/13 10:06:05;;;;;;;1.47;0.93;;;21.20;54.20;;;;;;5051977;28;20448;-59
2022/05/13 10:08:33;;;;;;;1.57;1.00;;;21.20;54.10;;;;;;5051995;28;20975;-61
2022/05/13 10:14:00;;;;;;;2.90;1.50;;;21.20;54.00;;;;;;5051868;28;20522;-62
2022/05/13 10:16:36;;;;;;;2.37;1.30;;;21.20;53.90;;;;;;5052080;28;20444;-62
2022/05/13 10:19:10;;;;;;;2.77;1.03;;;21.20;53.70;;;;;;5051938;28;20440;-61
2022/05/13 10:21:43;;;;;;;2.37;1.40;;;21.20;53.80;;;;;;5051934;28;20448;-61
2022/05/13 10:24:32;;;;;;;1.73;1.13;;;21.20;53.70;;;;;;5052123;28;20437;-61
2022/05/13 10:27:02;;;;;;;1.37;1.10;;;21.20;53.60;;;;;;5051643;28;20972;-58
2022/05/13 10:29:34;;;;;;;1.80;0.97;;;21.20;53.40;;;;;;5051951;28;20447;-58
2022/05/13 10:32:02;;;;;;;1.33;1.23;;;21.20;53.20;;;;;;5051750;28;20471;-60
2022/05/13 10:34:32;;;;;;;4.10;1.83;;;21.20;53.10;;;;;;5051657;28;20840;-61
2022/05/13 10:37:04;;;;;;;1.17;1.13;;;21.20;53.10;;;;;;5051741;28;20458;-58
2022/05/13 10:39:41;;;;;;;1.27;1.10;;;21.20;53.10;;;;;;5052122;28;20929;-59
2022/05/13 10:42:14;;;;;;;2.60;1.70;;;21.20;52.90;;;;;;5051919;28;20553;-60
2022/05/13 10:44:47;;;;;;;0.80;0.80;;;21.20;52.80;;;;;;5052382;28;20448;-59
2022/05/13 10:47:20;;;;;;;1.37;1.00;;;21.20;52.70;;;;;;5052275;28;20452;-59
2022/05/13 10:49:47;;;;;;;2.67;0.90;;;21.20;52.60;;;;;;5051703;28;20444;-57
2022/05/13 10:52:27;;;;;;;1.53;1.00;;;21.20;52.60;;;;;;5051471;28;20475;-62
2022/05/13 10:55:00;;;;;;;0.90;0.70;;;21.20;52.60;;;;;;5051513;28;20438;-62
2022/05/13 10:57:35;;;;;;;1.27;1.10;;;21.20;52.40;;;;;;5051169;28;20851;-62
2022/05/13 11:00:11;;;;;;;1.87;1.77;;;21.30;52.40;;;;;;5051351;28;20959;-58
2022/05/13 11:03:06;;;;;;;1.27;1.17;;;21.20;52.30;;;;;;5051310;28;20452;-62
2022/05/13 11:05:43;;;;;;;1.47;1.23;;;21.30;52.30;;;;;;5038443;28;20821;-61
2022/05/13 11:08:20;;;;;;;2.77;1.23;;;21.30;52.30;;;;;;5051521;28;20440;-62
2022/05/13 11:11:01;;;;;;;2.20;1.03;;;21.30;52.20;;;;;;5051687;28;20432;-59
2022/05/13 11:13:41;;;;;;;2.20;0.87;;;21.30;52.20;;;;;;5054978;28;20976;-61
2022/05/13 11:16:16;;;;;;;1.03;0.87;;;21.30;52.20;;;;;;5055126;28;20452;-58
2022/05/13 11:18:48;;;;;;;0.70;0.70;;;21.30;52.20;;;;;;5055496;28;20444;-62
2022/05/13 11:21:25;;;;;;;6.83;1.40;;;21.30;52.10;;;;;;5055171;28;20451;-62
2022/05/13 11:26:55;;;;;;;1.10;1.10;;;21.40;52.10;;;;;;5055053;28;20411;-62
2022/05/13 11:29:31;;;;;;;1.83;1.17;;;21.30;52.00;;;;;;5054934;28;20443;-62
2022/05/13 11:32:09;;;;;;;1.80;0.73;;;21.30;51.80;;;;;;5054925;28;20468;-62
2022/05/13 11:34:58;;;;;;;1.17;1.03;;;21.30;51.90;;;;;;5054765;28;20476;-62
2022/05/13 11:37:29;;;;;;;1.20;1.10;;;21.30;51.90;;;;;;5054670;28;20448;-62
2022/05/13 11:40:06;;;;;;;1.10;1.10;;;21.30;51.80;;;;;;5054893;28;20858;-61
2022/05/13 11:45:35;;;;;;;1.90;1.10;;;21.40;52.40;;;;;;5054395;28;20467;-62
2022/05/13 11:48:17;;;;;;;1.07;0.97;;;21.30;51.80;;;;;;5054450;28;20455;-62
2022/05/13 11:50:44;;;;;;;2.93;1.83;;;21.40;51.90;;;;;;5054918;28;20432;-62
2022/05/13 11:53:11;;;;;;;1.77;1.03;;;21.40;51.90;;;;;;5054516;28;20567;-62
2022/05/13 11:55:58;;;;;;;1.60;0.90;;;21.40;51.70;;;;;;5054470;28;20451;-62
2022/05/13 11:58:49;;;;;;;1.27;1.00;;;21.40;51.50;;;;;;5048336;28;20956;-61
2022/05/13 12:01:59;;;;;;;0.93;0.93;;;21.40;51.40;;;;;;5054369;28;20538;-62
2022/05/13 12:04:35;;;;;;;1.97;1.13;;;21.40;51.40;;;;;;5054397;28;20428;-62
2022/05/13 12:07:26;;;;;;;0.97;0.73;;;21.40;51.40;;;;;;5054495;28;20435;-62
2022/05/13 12:09:55;;;;;;;1.20;1.13;;;21.40;51.40;;;;;;5054335;28;20448;-62
2022/05/13 12:12:42;;;;;;;1.23;0.97;;;21.40;51.40;;;;;;5056657;28;20476;-63
2022/05/13 12:15:24;;;;;;;2.77;1.30;;;21.40;51.50;;;;;;5065894;28;20433;-62
2022/05/13 12:18:00;;;;;;;2.10;1.23;;;21.40;51.40;;;;;;5066241;28;20443;-61
2022/05/13 12:20:37;;;;;;;1.57;1.47;;;21.40;51.40;;;;;;5066522;28;20450;-62
2022/05/13 12:23:10;;;;;;;1.57;0.87;;;21.40;51.40;;;;;;5065941;28;20459;-62
2022/05/13 12:25:54;;;;;;;0.87;0.87;;;21.50;51.50;;;;;;5066615;28;20440;-62
2022/05/13 12:28:41;;;;;;;1.30;1.30;;;21.50;51.50;;;;;;5066483;28;20436;-62
2022/05/13 12:31:35;;;;;;;1.47;1.00;;;21.40;51.30;;;;;;5063185;28;20463;-62
2022/05/13 12:39:57;;;;;;;1.30;1.20;;;21.60;51.40;;;;;;4997023;28;20792;-61
2022/05/13 12:42:40;;;;;;;0.93;0.77;;;21.60;51.40;;;;;;5034810;28;20485;-62
2022/05/13 12:45:12;;;;;;;2.17;1.00;;;21.60;51.30;;;;;;5057443;28;20453;-62
2022/05/13 12:47:57;;;;;;;1.07;1.00;;;21.60;51.40;;;;;;5056728;28;20444;-60
2022/05/13 12:50:31;;;;;;;1.70;1.00;;;21.60;51.50;;;;;;5057147;28;20452;-62
2022/05/13 12:52:57;;;;;;;2.30;1.30;;;21.60;51.50;;;;;;5056697;28;20463;-62
2022/05/13 12:55:26;;;;;;;1.07;1.07;;;21.60;51.50;;;;;;5056573;28;20452;-61
2022/05/13 12:57:56;;;;;;;1.13;1.00;;;21.60;51.50;;;;;;5056422;28;20445;-62
2022/05/13 13:00:25;;;;;;;1.23;0.80;;;21.70;51.50;;;;;;5055840;28;20444;-62
2022/05/13 13:02:55;;;;;;;1.80;1.70;;;21.70;51.50;;;;;;5055737;28;20547;-62
2022/05/13 13:05:24;;;;;;;1.20;1.10;;;21.70;51.60;;;;;;5055755;28;20448;-61
2022/05/13 13:07:56;;;;;;;2.20;1.00;;;21.80;51.60;;;;;;5056382;28;20459;-61
2022/05/13 13:10:23;;;;;;;2.43;1.37;;;21.80;51.70;;;;;;5054412;28;20467;-55
2022/05/13 13:13:02;;;;;;;1.57;1.20;;;21.90;53.10;;;;;;5054314;28;20985;-62
2022/05/13 13:15:34;;;;;;;2.77;1.17;;;21.90;52.20;;;;;;5055323;28;20440;-58
2022/05/13 13:18:05;;;;;;;2.57;1.00;;;21.90;51.60;;;;;;5054542;28;20450;-64
2022/05/13 13:20:33;;;;;;;2.00;1.53;;;22.00;51.40;;;;;;5055004;28;20444;-64
2022/05/13 13:23:03;;;;;;;1.40;1.30;;;22.00;51.10;;;;;;5054812;28;20793;-67
2022/05/13 13:25:34;;;;;;;1.90;1.07;;;22.00;51.00;;;;;;5054752;28;20443;-64
2022/05/13 13:28:03;;;;;;;2.23;1.70;;;22.10;51.30;;;;;;5053739;28;20551;-59
2022/05/13 13:30:32;;;;;;;1.80;0.83;;;22.10;50.70;;;;;;5065529;28;20451;-57
2022/05/13 13:33:00;;;;;;;0.80;0.80;;;22.10;50.80;;;;;;5075937;28;20467;-60
2022/05/13 13:35:32;;;;;;;1.27;0.90;;;22.10;51.00;;;;;;5073827;28;20486;-58